Accueil
METAR-TAF:

METAR-TAF

Aéroports :

Touho, Nouvelle-Calédonie

Aérodrome de Touho

latitude: 20-47-25S, longitude: 165-15-34E, altitude: 3 m

METAR: absent

Heure: 21:27 (10:27 UTC)

Prévision

Le bulletin a été fait il y a 1 heure et 32 minutes, à 08:55 UTC
Prévision valable du 21 à 08 UTC au 22 à 06 UTC
Vent 14 kt de est
Visibilité 10 km ou plus
Nuages épars à une hauteur de 2500 ft
Nuages épars à une hauteur de 3000 ft
Probabilité 30% :
Temporairement
du 21 à 12 UTC au 21 à 24 UTC
Visibilité: 4000 m
Nuages fragmentés à une hauteur de 1000 ft
averses de pluie

TAF: NWWU 210855Z 2108/2206 08014KT 9999 SCT025 SCT030 PROB30 TEMPO 2112/2124 4000 SHRA BKN010

Observations et prévisions météorologiques de plus de 4000 aéroports (messages METAR et TAF).

Les stations disponibles sont représentées par des disques jaunes et rouges sur la carte.

Passer la souris dessus pour voir le nom de la station.

Cliquer dessus pour voir les observations et prévisions météorologiques.

Pour changer de carte: cliquez sur les boutons verts avec une croix noire pour zoomer, sur le bouton vert avec un tiret pour effectuer un zoom arrière, ou sur les flèches vertes pour les cartes adjacentes.


METAR-TAF: